Time;durP1;ratioP1;P1;durP2;ratioP2;P2;SDS_P1;SDS_P2;PMS_P1;PMS_P2;Temp;Humidity;BMP_temperature;BMP_pressure;BME280_temperature;BME280_humidity;BME280_pressure;Samples;Min_cycle;Max_cycle;Signal;HPM_P1;HPM_P2
2022/01/25 00:24:34;;;;;;;16.67;8.30;;;;;;;;;;5027838;28;20076;-62
2022/01/25 00:27:12;;;;;;;19.00;9.00;;;;;;;;;;5029323;28;20073;-61
2022/01/25 00:32:10;;;;;;;16.42;8.23;;;;;;;;;;5032526;28;20049;-62
2022/01/25 00:34:36;;;;;;;19.13;8.32;;;;;;;;;;5031203;28;20039;-62
2022/01/25 00:37:02;;;;;;;19.20;8.50;;;;;;;;;;5039992;28;20053;-62
2022/01/25 00:39:28;;;;;;;21.05;7.85;;;;;;;;;;5032761;28;20120;-62
2022/01/25 00:41:54;;;;;;;18.88;8.23;;;;;;;;;;5030869;28;20013;-62
2022/01/25 00:44:20;;;;;;;16.55;7.30;;;;;;;;;;5032205;28;20141;-62
2022/01/25 00:46:46;;;;;;;16.40;7.50;;;;;;;;;;5031358;28;20101;-62
2022/01/25 00:49:26;;;;;;;20.50;8.68;;;;;;;;;;5032911;28;20060;-62
2022/01/25 00:54:30;;;;;;;19.85;8.52;;;;;;;;;;5035541;28;20029;-62
2022/01/25 00:56:57;;;;;;;18.42;8.20;;;;;;;;;;5038422;28;20021;-62
2022/01/25 00:59:30;;;;;;;16.77;8.20;;;;;;;;;;5036730;28;20083;-62
2022/01/25 01:01:57;;;;;;;18.50;8.35;;;;;;;;;;5036392;28;20060;-62
2022/01/25 01:04:24;;;;;;;18.20;7.95;;;;;;;;;;5024481;28;20112;-62
2022/01/25 01:06:51;;;;;;;15.15;7.47;;;;;;;;;;5038011;28;20040;-62
2022/01/25 01:09:18;;;;;;;19.73;8.88;;;;;;;;;;5022710;28;20104;-62
2022/01/25 01:11:52;;;;;;;15.73;7.22;;;;;;;;;;5032952;28;20040;-62
2022/01/25 01:14:27;;;;;;;20.35;7.97;;;;;;;;;;5025264;28;20084;-62
2022/01/25 01:30:45;;;;;;;18.55;8.43;;;;;;;;;;5023335;28;20048;-62
2022/01/25 01:33:51;;;;;;;18.50;8.10;;;;;;;;;;5032493;28;20458;-62
2022/01/25 01:36:48;;;;;;;19.10;7.60;;;;;;;;;;5031121;28;20048;-62
2022/01/25 01:39:28;;;;;;;15.57;7.75;;;;;;;;;;5023178;28;20129;-62
2022/01/25 01:42:13;;;;;;;19.92;7.63;;;;;;;;;;5030611;28;20045;-61
2022/01/25 01:44:53;;;;;;;16.73;7.22;;;;;;;;;;5034270;28;20028;-61
2022/01/25 01:47:33;;;;;;;20.98;8.05;;;;;;;;;;5028770;28;20030;-62
2022/01/25 01:50:01;;;;;;;18.13;8.20;;;;;;;;;;5022457;28;20029;-61
2022/01/25 01:52:28;;;;;;;17.20;7.65;;;;;;;;;;5026828;28;20110;-62
2022/01/25 01:54:54;;;;;;;17.08;6.80;;;;;;;;;;5032251;28;20044;-62
2022/01/25 01:57:20;;;;;;;18.45;7.55;;;;;;;;;;5033339;28;20104;-61
2022/01/25 01:59:46;;;;;;;17.20;8.15;;;;;;;;;;5031863;28;20021;-62
2022/01/25 02:02:12;;;;;;;19.10;8.43;;;;;;;;;;5018001;28;20101;-61
2022/01/25 02:04:38;;;;;;;19.70;8.40;;;;;;;;;;5026764;28;20044;-61
2022/01/25 02:07:04;;;;;;;19.48;8.73;;;;;;;;;;5030065;28;20029;-61
2022/01/25 02:09:32;;;;;;;23.58;9.93;;;;;;;;;;5027018;28;20140;-61
2022/01/25 02:11:58;;;;;;;23.67;9.77;;;;;;;;;;5031536;28;20056;-61
2022/01/25 02:14:24;;;;;;;21.70;9.52;;;;;;;;;;5026170;28;20033;-61
2022/01/25 02:22:29;;;;;;;23.48;10.05;;;;;;;;;;5027686;28;20101;-61
2022/01/25 02:24:55;;;;;;;19.08;8.65;;;;;;;;;;5027672;28;20065;-61
2022/01/25 02:27:21;;;;;;;21.83;10.02;;;;;;;;;;5021718;28;20112;-61
2022/01/25 02:29:47;;;;;;;21.67;9.00;;;;;;;;;;5026912;28;20549;-60
2022/01/25 02:32:13;;;;;;;23.33;9.60;;;;;;;;;;5016987;28;20041;-61
2022/01/25 02:34:39;;;;;;;22.40;9.10;;;;;;;;;;5024696;28;20109;-61
2022/01/25 02:37:09;;;;;;;25.17;9.77;;;;;;;;;;5035935;28;20053;-61
2022/01/25 02:39:37;;;;;;;24.15;10.27;;;;;;;;;;5033111;28;20034;-61
2022/01/25 02:42:03;;;;;;;27.70;10.55;;;;;;;;;;5026224;28;20021;-60
2022/01/25 02:44:29;;;;;;;24.25;9.48;;;;;;;;;;5030767;28;20108;-61
2022/01/25 02:49:30;;;;;;;20.42;9.07;;;;;;;;;;5030091;28;20079;-61
2022/01/25 02:51:56;;;;;;;21.92;9.35;;;;;;;;;;5022028;28;20188;-61
2022/01/25 02:54:22;;;;;;;25.17;10.65;;;;;;;;;;5015228;28;20116;-61
2022/01/25 02:56:48;;;;;;;31.45;13.02;;;;;;;;;;5024916;28;20048;-61
2022/01/25 02:59:15;;;;;;;29.63;11.93;;;;;;;;;;5023083;28;20075;-61
2022/01/25 03:01:41;;;;;;;32.22;12.95;;;;;;;;;;5031082;28;20362;-61
2022/01/25 03:04:08;;;;;;;31.27;11.68;;;;;;;;;;5025426;28;20060;-60
2022/01/25 03:06:34;;;;;;;32.10;11.23;;;;;;;;;;5032764;28;20022;-61
2022/01/25 03:09:00;;;;;;;34.00;12.52;;;;;;;;;;5030909;28;20057;-60
2022/01/25 03:11:26;;;;;;;31.35;12.02;;;;;;;;;;5028617;28;20478;-60
2022/01/25 03:13:55;;;;;;;33.78;12.75;;;;;;;;;;5028362;28;20041;-61
2022/01/25 03:16:40;;;;;;;32.22;12.73;;;;;;;;;;5019395;28;20041;-60
2022/01/25 03:19:40;;;;;;;35.42;12.55;;;;;;;;;;5024036;28;20187;-61
2022/01/25 03:21:54;;;;;;;32.53;13.00;;;;;;;;;;5029917;28;20029;-60
2022/01/25 03:24:20;;;;;;;31.52;13.70;;;;;;;;;;5023935;28;20129;-61
2022/01/25 03:26:46;;;;;;;31.60;12.57;;;;;;;;;;5026989;28;20025;-61
2022/01/25 03:29:13;;;;;;;33.17;12.25;;;;;;;;;;5030798;28;20108;-60
2022/01/25 03:31:38;;;;;;;32.72;12.45;;;;;;;;;;5017884;28;20597;-60
2022/01/25 03:34:05;;;;;;;32.38;12.82;;;;;;;;;;5026569;28;20042;-61
2022/01/25 03:36:31;;;;;;;33.35;13.35;;;;;;;;;;5035074;28;20073;-60
2022/01/25 03:38:57;;;;;;;33.78;12.35;;;;;;;;;;5022198;28;20504;-61
2022/01/25 03:41:23;;;;;;;31.70;10.80;;;;;;;;;;5021055;28;20029;-60
2022/01/25 03:43:54;;;;;;;35.83;13.93;;;;;;;;;;5023336;28;20064;-60
2022/01/25 03:46:36;;;;;;;32.90;12.15;;;;;;;;;;5021461;28;20039;-60
2022/01/25 03:51:48;;;;;;;31.50;12.48;;;;;;;;;;5023081;28;20048;-60
2022/01/25 03:54:14;;;;;;;33.85;13.40;;;;;;;;;;5031691;28;20030;-60
2022/01/25 03:56:40;;;;;;;35.05;13.10;;;;;;;;;;5030579;28;20060;-60
2022/01/25 03:59:07;;;;;;;36.03;12.88;;;;;;;;;;5027985;28;20099;-60
2022/01/25 04:01:34;;;;;;;34.28;12.82;;;;;;;;;;5026355;28;20022;-60
2022/01/25 04:04:04;;;;;;;33.05;12.93;;;;;;;;;;5024223;28;20037;-60
2022/01/25 04:06:32;;;;;;;31.55;12.35;;;;;;;;;;5032030;28;20486;-60
2022/01/25 04:08:59;;;;;;;37.47;12.85;;;;;;;;;;5024391;28;20461;-60
2022/01/25 04:11:25;;;;;;;31.33;13.00;;;;;;;;;;5032605;28;20049;-60
2022/01/25 04:13:53;;;;;;;33.08;12.57;;;;;;;;;;5027649;28;20068;-60
2022/01/25 04:16:25;;;;;;;34.92;11.68;;;;;;;;;;5029999;28;20755;-60
2022/01/25 04:19:06;;;;;;;34.20;12.35;;;;;;;;;;5021941;28;20025;-61
2022/01/25 04:26:44;;;;;;;32.30;12.13;;;;;;;;;;5028492;28;20087;-60
2022/01/25 04:29:10;;;;;;;35.38;12.60;;;;;;;;;;5029687;28;20041;-61
2022/01/25 04:31:37;;;;;;;31.27;12.57;;;;;;;;;;5028853;28;20454;-60
2022/01/25 04:34:25;;;;;;;37.60;13.02;;;;;;;;;;5031577;28;20033;-61
2022/01/25 04:53:57;;;;;;;37.10;12.35;;;;;;;;;;5029807;28;20471;-60
2022/01/25 04:56:13;;;;;;;28.60;11.15;;;;;;;;;;5028939;28;20417;-59
2022/01/25 04:59:06;;;;;;;30.27;10.88;;;;;;;;;;5023763;28;20041;-60
2022/01/25 05:01:28;;;;;;;28.50;10.77;;;;;;;;;;5017705;28;20037;-60
2022/01/25 05:04:09;;;;;;;28.58;9.90;;;;;;;;;;5023528;28;20041;-60
2022/01/25 05:06:35;;;;;;;34.30;11.70;;;;;;;;;;5030206;28;20485;-60
2022/01/25 05:09:09;;;;;;;32.08;11.55;;;;;;;;;;5027072;28;20037;-60
2022/01/25 05:11:39;;;;;;;31.83;11.88;;;;;;;;;;5023846;28;20038;-60
2022/01/25 05:16:38;;;;;;;31.88;12.38;;;;;;;;;;5014583;28;20034;-60
2022/01/25 05:19:23;;;;;;;29.75;10.95;;;;;;;;;;5029721;28;20018;-60
2022/01/25 05:24:52;;;;;;;33.23;10.80;;;;;;;;;;5007217;28;20132;-60
2022/01/25 05:27:20;;;;;;;30.95;11.20;;;;;;;;;;5030228;28;20299;-60
2022/01/25 05:29:46;;;;;;;29.10;9.85;;;;;;;;;;5034290;28;20713;-60
2022/01/25 05:32:13;;;;;;;28.25;10.98;;;;;;;;;;5034445;28;20549;-61
2022/01/25 05:34:39;;;;;;;31.58;11.45;;;;;;;;;;5030190;28;20037;-60
2022/01/25 05:37:07;;;;;;;32.92;10.63;;;;;;;;;;5028349;28;20111;-60
2022/01/25 05:39:35;;;;;;;38.35;11.85;;;;;;;;;;5029287;28;20017;-60
2022/01/25 05:42:25;;;;;;;28.65;11.82;;;;;;;;;;5033880;28;20048;-61
2022/01/25 05:45:10;;;;;;;28.52;11.52;;;;;;;;;;5032540;28;20038;-60
2022/01/25 05:47:38;;;;;;;29.63;10.52;;;;;;;;;;5033392;28;20041;-60
2022/01/25 05:50:04;;;;;;;35.63;11.18;;;;;;;;;;5034154;28;20112;-60
2022/01/25 05:52:30;;;;;;;36.20;12.82;;;;;;;;;;5029644;28;20033;-60
2022/01/25 05:54:57;;;;;;;32.40;10.73;;;;;;;;;;5021964;28;20025;-61
2022/01/25 05:57:23;;;;;;;35.28;11.93;;;;;;;;;;5029435;28;20025;-61
2022/01/25 05:59:49;;;;;;;34.25;11.73;;;;;;;;;;5032629;28;20063;-60
2022/01/25 06:02:18;;;;;;;32.65;11.10;;;;;;;;;;5024794;28;20113;-60
2022/01/25 06:04:45;;;;;;;30.40;11.82;;;;;;;;;;5037371;28;20408;-60
2022/01/25 06:07:11;;;;;;;32.42;11.82;;;;;;;;;;5027329;28;20076;-60
2022/01/25 06:09:37;;;;;;;36.83;13.57;;;;;;;;;;5024898;28;20390;-60
2022/01/25 06:12:03;;;;;;;34.70;11.82;;;;;;;;;;5031751;28;20025;-60
2022/01/25 06:14:29;;;;;;;36.90;13.63;;;;;;;;;;5032281;28;20033;-60
2022/01/25 06:16:55;;;;;;;39.20;12.93;;;;;;;;;;5032565;28;20433;-59
2022/01/25 06:19:21;;;;;;;29.00;10.55;;;;;;;;;;5019991;28;20072;-60
2022/01/25 06:21:47;;;;;;;36.13;12.95;;;;;;;;;;5021135;28;20018;-59
2022/01/25 06:24:13;;;;;;;38.33;13.10;;;;;;;;;;5031931;28;20064;-60
2022/01/25 06:26:39;;;;;;;31.90;11.90;;;;;;;;;;5018151;28;20030;-60
2022/01/25 06:29:05;;;;;;;29.10;11.73;;;;;;;;;;5022661;28;20030;-60
2022/01/25 06:31:31;;;;;;;38.35;14.10;;;;;;;;;;5019245;28;20277;-61
2022/01/25 06:33:58;;;;;;;29.00;11.40;;;;;;;;;;5020809;28;20454;-60
2022/01/25 06:36:24;;;;;;;39.75;13.63;;;;;;;;;;5021975;28;20042;-60
2022/01/25 06:38:50;;;;;;;34.85;13.07;;;;;;;;;;5031770;28;20478;-60
2022/01/25 06:41:17;;;;;;;36.95;12.73;;;;;;;;;;5026694;28;20076;-60
2022/01/25 06:43:43;;;;;;;39.28;12.55;;;;;;;;;;5032221;28;20021;-60
2022/01/25 06:46:09;;;;;;;36.78;13.75;;;;;;;;;;5028574;28;20381;-60
2022/01/25 06:48:36;;;;;;;36.92;12.15;;;;;;;;;;5019966;28;20414;-60
2022/01/25 06:51:02;;;;;;;40.83;12.57;;;;;;;;;;5032708;28;20028;-60
2022/01/25 06:53:28;;;;;;;44.60;13.82;;;;;;;;;;5032634;28;20097;-60
2022/01/25 06:55:54;;;;;;;34.03;12.27;;;;;;;;;;5032286;28;20033;-60
2022/01/25 06:58:20;;;;;;;35.70;12.77;;;;;;;;;;5031243;28;20029;-60
2022/01/25 07:00:46;;;;;;;39.08;13.07;;;;;;;;;;5032860;28;20083;-60
2022/01/25 07:03:12;;;;;;;33.80;12.50;;;;;;;;;;5032163;28;20030;-60
2022/01/25 07:05:38;;;;;;;35.65;12.68;;;;;;;;;;5031954;28;20436;-60
2022/01/25 07:08:04;;;;;;;36.75;13.65;;;;;;;;;;5031613;28;20025;-60
2022/01/25 07:10:31;;;;;;;35.17;13.75;;;;;;;;;;5032419;28;20220;-60
2022/01/25 07:12:57;;;;;;;33.50;12.75;;;;;;;;;;5030297;28;20521;-60
2022/01/25 07:15:23;;;;;;;33.45;12.20;;;;;;;;;;5032434;28;20132;-59
2022/01/25 07:17:49;;;;;;;42.88;14.30;;;;;;;;;;5032396;28;20097;-60
2022/01/25 07:20:15;;;;;;;34.15;13.00;;;;;;;;;;5031540;28;20633;-60
2022/01/25 07:22:41;;;;;;;36.45;13.32;;;;;;;;;;5032020;28;20129;-60
2022/01/25 07:25:09;;;;;;;38.75;13.52;;;;;;;;;;5030490;28;20508;-60
2022/01/25 07:27:35;;;;;;;36.53;13.18;;;;;;;;;;5031974;28;20048;-60
2022/01/25 07:30:01;;;;;;;43.75;14.35;;;;;;;;;;5032117;28;20029;-60
2022/01/25 07:32:27;;;;;;;34.55;12.75;;;;;;;;;;5031544;28;20096;-60
2022/01/25 07:34:53;;;;;;;39.90;13.15;;;;;;;;;;5028818;28;20033;-59
2022/01/25 07:37:19;;;;;;;35.60;12.90;;;;;;;;;;5030021;28;20027;-60
2022/01/25 07:39:47;;;;;;;38.15;13.15;;;;;;;;;;5030397;28;20721;-61
2022/01/25 07:42:13;;;;;;;39.95;13.73;;;;;;;;;;5030821;28;20417;-60
2022/01/25 07:44:39;;;;;;;35.65;14.00;;;;;;;;;;5032144;28;20026;-60
2022/01/25 07:47:06;;;;;;;37.20;13.70;;;;;;;;;;5032386;28;20025;-60
2022/01/25 07:49:32;;;;;;;40.22;14.18;;;;;;;;;;5031170;28;20033;-60
2022/01/25 07:51:59;;;;;;;39.40;15.15;;;;;;;;;;5026381;28;20036;-61
2022/01/25 07:54:26;;;;;;;41.92;13.70;;;;;;;;;;5030441;28;20033;-60
2022/01/25 07:56:52;;;;;;;39.17;14.80;;;;;;;;;;5030258;28;20075;-60
2022/01/25 07:59:18;;;;;;;41.92;15.52;;;;;;;;;;5030461;28;20026;-60
2022/01/25 08:01:44;;;;;;;37.90;14.40;;;;;;;;;;5031672;28;20025;-60
2022/01/25 08:04:11;;;;;;;35.83;15.00;;;;;;;;;;5027634;28;20030;-60
2022/01/25 08:06:38;;;;;;;36.80;14.80;;;;;;;;;;5024870;28;20078;-60
2022/01/25 08:09:05;;;;;;;36.75;14.38;;;;;;;;;;5031947;28;20109;-61
2022/01/25 08:11:31;;;;;;;42.90;14.32;;;;;;;;;;5021458;28;20030;-60
2022/01/25 08:14:11;;;;;;;38.25;14.25;;;;;;;;;;5018166;28;20029;-60
2022/01/25 08:16:38;;;;;;;44.33;15.05;;;;;;;;;;5027049;28;20057;-60
2022/01/25 08:19:05;;;;;;;41.67;15.65;;;;;;;;;;5030706;28;20080;-61
2022/01/25 08:21:31;;;;;;;40.05;14.82;;;;;;;;;;5024579;28;20035;-61
2022/01/25 08:23:57;;;;;;;50.42;15.80;;;;;;;;;;5034964;28;20029;-60
2022/01/25 08:26:23;;;;;;;42.58;15.13;;;;;;;;;;5035343;28;20521;-61
2022/01/25 08:28:49;;;;;;;42.65;15.48;;;;;;;;;;5031959;28;20037;-61
2022/01/25 08:31:15;;;;;;;44.15;15.40;;;;;;;;;;5028338;28;20041;-61
2022/01/25 08:33:41;;;;;;;38.50;14.23;;;;;;;;;;5035413;28;20042;-60
2022/01/25 08:36:07;;;;;;;45.28;16.38;;;;;;;;;;5036754;28;20049;-61
2022/01/25 08:38:33;;;;;;;51.00;16.50;;;;;;;;;;5031863;28;20021;-60
2022/01/25 08:40:59;;;;;;;47.72;15.07;;;;;;;;;;5034934;28;20036;-61
2022/01/25 08:43:25;;;;;;;42.58;14.75;;;;;;;;;;5020538;28;20053;-61
2022/01/25 08:45:51;;;;;;;45.25;15.57;;;;;;;;;;5034576;28;20052;-61
2022/01/25 08:48:17;;;;;;;38.70;14.57;;;;;;;;;;5022675;28;20033;-61
2022/01/25 08:50:43;;;;;;;40.33;14.60;;;;;;;;;;5034344;28;20040;-60
2022/01/25 08:53:11;;;;;;;48.13;15.82;;;;;;;;;;5034465;28;20462;-60
2022/01/25 08:55:37;;;;;;;40.30;15.10;;;;;;;;;;5033185;28;20059;-60
2022/01/25 08:58:03;;;;;;;40.75;14.93;;;;;;;;;;5033541;28;20025;-60
2022/01/25 09:00:29;;;;;;;39.92;14.05;;;;;;;;;;5034635;28;20028;-61
2022/01/25 09:02:55;;;;;;;46.40;15.90;;;;;;;;;;5034686;28;20096;-60
2022/01/25 09:05:21;;;;;;;38.75;14.27;;;;;;;;;;5034537;28;20029;-60
2022/01/25 09:07:51;;;;;;;42.35;15.13;;;;;;;;;;5025113;28;20079;-60
2022/01/25 09:10:17;;;;;;;42.67;15.40;;;;;;;;;;5032754;28;20057;-60
2022/01/25 09:12:43;;;;;;;42.45;14.43;;;;;;;;;;5028311;28;20444;-60
2022/01/25 09:15:09;;;;;;;41.40;14.27;;;;;;;;;;5026334;28;20030;-60
2022/01/25 09:17:35;;;;;;;38.45;14.40;;;;;;;;;;5027342;28;20048;-60
2022/01/25 09:20:02;;;;;;;37.25;13.60;;;;;;;;;;5036448;28;20092;-60
2022/01/25 09:22:28;;;;;;;38.95;14.00;;;;;;;;;;5033953;28;20034;-60
2022/01/25 09:24:54;;;;;;;30.83;12.23;;;;;;;;;;5032862;28;20044;-60
2022/01/25 09:27:20;;;;;;;37.20;13.23;;;;;;;;;;5038434;28;20441;-60
2022/01/25 09:29:47;;;;;;;34.72;11.95;;;;;;;;;;5025623;28;20026;-60
2022/01/25 09:32:13;;;;;;;39.67;14.20;;;;;;;;;;5034140;28;20033;-59
2022/01/25 09:34:39;;;;;;;36.17;14.70;;;;;;;;;;5033711;28;20125;-60
2022/01/25 09:37:05;;;;;;;36.80;14.18;;;;;;;;;;5033720;28;20386;-60
2022/01/25 09:39:31;;;;;;;37.03;13.07;;;;;;;;;;5031431;28;20036;-60
2022/01/25 09:41:57;;;;;;;35.45;12.48;;;;;;;;;;5019621;28;20105;-59
2022/01/25 09:44:24;;;;;;;35.40;12.85;;;;;;;;;;5034148;28;20021;-60
2022/01/25 09:46:55;;;;;;;35.92;13.45;;;;;;;;;;5032838;28;20018;-60
2022/01/25 09:49:21;;;;;;;35.22;12.95;;;;;;;;;;5023132;28;20060;-60
2022/01/25 09:51:49;;;;;;;36.88;12.43;;;;;;;;;;5032197;28;20079;-60
2022/01/25 09:54:15;;;;;;;35.70;14.07;;;;;;;;;;5034230;28;20048;-60
2022/01/25 09:56:41;;;;;;;40.28;13.10;;;;;;;;;;5034038;28;20457;-60
2022/01/25 09:59:07;;;;;;;39.80;14.32;;;;;;;;;;5030348;28;20021;-60
2022/01/25 10:01:33;;;;;;;38.25;13.02;;;;;;;;;;5029622;28;20026;-60
2022/01/25 10:04:03;;;;;;;37.38;12.70;;;;;;;;;;5033862;28;20052;-60
2022/01/25 10:06:31;;;;;;;34.70;11.75;;;;;;;;;;5032105;28;20129;-60
2022/01/25 10:08:57;;;;;;;38.60;13.80;;;;;;;;;;5034031;28;20053;-60
2022/01/25 10:11:25;;;;;;;34.53;12.65;;;;;;;;;;5031222;28;20052;-60
2022/01/25 10:13:54;;;;;;;32.60;12.90;;;;;;;;;;5024188;28;20033;-61
2022/01/25 10:16:22;;;;;;;37.47;12.95;;;;;;;;;;5027561;28;20037;-60
2022/01/25 10:18:50;;;;;;;35.22;11.98;;;;;;;;;;5032635;28;20022;-60
2022/01/25 10:21:22;;;;;;;31.92;11.77;;;;;;;;;;5032589;28;20026;-60
2022/01/25 10:24:08;;;;;;;36.05;12.30;;;;;;;;;;5032277;28;20029;-59
2022/01/25 10:27:00;;;;;;;33.03;11.65;;;;;;;;;;5023668;28;20068;-60
2022/01/25 10:29:29;;;;;;;32.47;11.15;;;;;;;;;;5031241;28;20067;-61
2022/01/25 10:31:58;;;;;;;26.50;10.80;;;;;;;;;;5025642;28;20029;-60
2022/01/25 10:34:26;;;;;;;31.38;11.48;;;;;;;;;;5031610;28;20034;-60
2022/01/25 10:36:53;;;;;;;29.27;10.68;;;;;;;;;;5042793;28;20115;-60
2022/01/25 10:39:24;;;;;;;31.00;11.40;;;;;;;;;;5038229;28;20029;-60
2022/01/25 10:41:50;;;;;;;28.38;10.93;;;;;;;;;;5032586;28;20021;-60
2022/01/25 10:44:15;;;;;;;28.38;9.45;;;;;;;;;;5031719;28;20060;-60
2022/01/25 10:46:42;;;;;;;27.02;9.50;;;;;;;;;;5031709;28;20025;-60
2022/01/25 10:49:09;;;;;;;27.05;9.77;;;;;;;;;;5030194;28;20160;-60
2022/01/25 10:51:35;;;;;;;28.83;10.00;;;;;;;;;;5032405;28;20053;-60
2022/01/25 10:54:04;;;;;;;29.08;9.25;;;;;;;;;;5039770;28;20041;-60
2022/01/25 10:56:34;;;;;;;25.88;9.23;;;;;;;;;;5033508;28;20029;-60
2022/01/25 10:59:01;;;;;;;29.20;9.93;;;;;;;;;;5028597;28;20489;-60
2022/01/25 11:01:31;;;;;;;23.33;9.88;;;;;;;;;;5028176;28;20034;-60
2022/01/25 11:04:08;;;;;;;23.80;8.38;;;;;;;;;;5029335;28;20037;-59
2022/01/25 11:06:34;;;;;;;21.25;7.75;;;;;;;;;;5028382;28;20037;-60
2022/01/25 11:09:04;;;;;;;20.98;7.55;;;;;;;;;;5027477;28;20628;-60
2022/01/25 11:11:34;;;;;;;23.30;8.85;;;;;;;;;;5027729;28;20386;-60
2022/01/25 11:14:50;;;;;;;20.90;7.63;;;;;;;;;;5032017;28;20029;-59
2022/01/25 11:16:48;;;;;;;20.02;7.63;;;;;;;;;;5028368;28;20052;-60
2022/01/25 11:19:14;;;;;;;21.40;8.38;;;;;;;;;;5031962;28;20537;-60
2022/01/25 11:21:40;;;;;;;21.88;8.25;;;;;;;;;;5031181;28;20033;-60
2022/01/25 11:24:06;;;;;;;20.92;7.57;;;;;;;;;;5032163;28;20026;-60
2022/01/25 11:26:32;;;;;;;22.85;9.05;;;;;;;;;;5032184;28;20044;-59
2022/01/25 11:28:58;;;;;;;18.17;7.90;;;;;;;;;;5030404;28;20052;-60
2022/01/25 11:31:25;;;;;;;17.77;7.53;;;;;;;;;;5023087;28;20061;-60
2022/01/25 11:33:52;;;;;;;20.45;8.75;;;;;;;;;;5030760;28;20033;-60
2022/01/25 11:36:20;;;;;;;16.38;7.40;;;;;;;;;;5034172;28;20059;-60
2022/01/25 11:38:50;;;;;;;23.77;8.27;;;;;;;;;;5018317;28;20037;-60
2022/01/25 11:41:18;;;;;;;21.75;8.18;;;;;;;;;;5031102;28;20036;-60
2022/01/25 11:43:45;;;;;;;22.00;7.57;;;;;;;;;;5031209;28;20164;-60
2022/01/25 11:46:11;;;;;;;17.98;7.45;;;;;;;;;;5030432;28;20033;-60
2022/01/25 11:48:42;;;;;;;19.27;6.97;;;;;;;;;;5031959;28;20448;-60
2022/01/25 11:51:15;;;;;;;17.98;6.65;;;;;;;;;;5022533;28;20025;-60
2022/01/25 11:53:43;;;;;;;18.20;6.85;;;;;;;;;;5031470;28;20025;-60
2022/01/25 11:56:09;;;;;;;21.60;7.00;;;;;;;;;;5027647;28;20063;-60
2022/01/25 11:58:36;;;;;;;18.80;6.00;;;;;;;;;;5017736;28;20049;-60
2022/01/25 12:01:19;;;;;;;15.05;5.60;;;;;;;;;;5012123;28;20034;-60
2022/01/25 12:03:46;;;;;;;17.15;6.82;;;;;;;;;;5027390;28;20029;-60
2022/01/25 12:06:21;;;;;;;22.77;6.50;;;;;;;;;;5031953;28;20033;-60
2022/01/25 12:09:17;;;;;;;17.77;5.40;;;;;;;;;;5031782;28;20029;-60
2022/01/25 12:11:49;;;;;;;12.95;5.93;;;;;;;;;;5033095;28;20356;-60
2022/01/25 12:14:23;;;;;;;17.50;6.55;;;;;;;;;;5031576;28;20028;-60
2022/01/25 12:16:57;;;;;;;20.77;5.97;;;;;;;;;;5018296;28;20354;-60
2022/01/25 12:19:44;;;;;;;18.98;6.30;;;;;;;;;;5026539;28;20025;-60
2022/01/25 12:22:35;;;;;;;19.67;5.70;;;;;;;;;;5028959;28;20052;-60
2022/01/25 12:25:12;;;;;;;16.05;5.55;;;;;;;;;;5027797;28;20021;-60
2022/01/25 12:27:52;;;;;;;17.50;6.13;;;;;;;;;;5027493;28;20383;-60
2022/01/25 12:30:20;;;;;;;15.55;6.80;;;;;;;;;;5026918;28;20044;-60
2022/01/25 12:32:52;;;;;;;20.05;7.55;;;;;;;;;;5030173;28;20033;-60
2022/01/25 12:35:32;;;;;;;17.05;6.55;;;;;;;;;;5030033;28;20405;-59
2022/01/25 12:37:59;;;;;;;16.65;6.78;;;;;;;;;;5032100;28;20032;-60
2022/01/25 12:40:25;;;;;;;16.70;6.97;;;;;;;;;;5031617;28;20026;-60
2022/01/25 12:42:56;;;;;;;20.10;6.32;;;;;;;;;;5023704;28;20029;-60
2022/01/25 12:45:23;;;;;;;15.15;5.70;;;;;;;;;;5016645;28;20117;-60
2022/01/25 12:47:53;;;;;;;18.90;6.93;;;;;;;;;;5022443;28;20033;-60
2022/01/25 12:50:19;;;;;;;18.50;6.75;;;;;;;;;;5028370;28;20109;-60
2022/01/25 12:52:48;;;;;;;16.75;6.75;;;;;;;;;;5023673;28;20482;-60
2022/01/25 12:55:15;;;;;;;14.40;5.80;;;;;;;;;;5031116;28;20112;-59
2022/01/25 12:57:48;;;;;;;17.88;6.70;;;;;;;;;;5025396;28;20101;-59
2022/01/25 13:00:15;;;;;;;16.25;6.50;;;;;;;;;;5025759;28;20032;-60
2022/01/25 13:02:41;;;;;;;17.15;6.05;;;;;;;;;;5025706;28;20034;-59
2022/01/25 13:05:17;;;;;;;14.32;5.68;;;;;;;;;;5033172;28;20108;-60
2022/01/25 13:07:43;;;;;;;14.15;5.82;;;;;;;;;;5018058;28;20108;-60
2022/01/25 13:10:11;;;;;;;16.00;6.32;;;;;;;;;;5019533;28;20036;-60
2022/01/25 13:12:56;;;;;;;20.92;7.50;;;;;;;;;;5033458;28;20377;-60
2022/01/25 13:16:11;;;;;;;16.23;5.60;;;;;;;;;;5032310;28;20039;-60
2022/01/25 13:18:13;;;;;;;17.00;7.30;;;;;;;;;;5029656;28;20424;-60
2022/01/25 13:20:41;;;;;;;22.42;8.00;;;;;;;;;;5022420;28;20034;-60
2022/01/25 13:23:08;;;;;;;14.93;6.30;;;;;;;;;;5027120;28;20401;-60
2022/01/25 13:25:57;;;;;;;17.60;7.72;;;;;;;;;;5029907;28;20056;-60
2022/01/25 13:28:37;;;;;;;19.17;6.78;;;;;;;;;;5036286;28;20030;-59
2022/01/25 13:31:07;;;;;;;19.58;7.18;;;;;;;;;;5027612;28;20358;-60
2022/01/25 13:33:33;;;;;;;18.88;7.35;;;;;;;;;;5016115;28;20051;-60
2022/01/25 13:36:01;;;;;;;18.02;7.63;;;;;;;;;;5026212;28;20037;-60
2022/01/25 13:38:30;;;;;;;23.63;8.10;;;;;;;;;;5044840;28;20029;-60
2022/01/25 13:46:06;;;;;;;18.55;7.50;;;;;;;;;;5032284;28;20033;-60
2022/01/25 13:48:33;;;;;;;21.13;7.70;;;;;;;;;;5021859;28;20053;-60
2022/01/25 13:51:07;;;;;;;25.00;8.95;;;;;;;;;;5029758;28;20033;-60
2022/01/25 13:53:33;;;;;;;27.35;9.30;;;;;;;;;;5026761;28;20148;-60
2022/01/25 13:56:00;;;;;;;23.90;8.15;;;;;;;;;;5025900;28;20033;-60
2022/01/25 13:58:30;;;;;;;20.00;7.68;;;;;;;;;;5027190;28;20030;-60
2022/01/25 14:00:57;;;;;;;23.85;8.07;;;;;;;;;;5026816;28;20022;-60
2022/01/25 14:03:27;;;;;;;23.23;8.55;;;;;;;;;;5033421;28;20094;-60
2022/01/25 14:05:54;;;;;;;21.52;7.97;;;;;;;;;;5028358;28;20187;-60
2022/01/25 14:08:32;;;;;;;25.13;9.13;;;;;;;;;;5024532;28;20033;-60
2022/01/25 14:11:01;;;;;;;21.73;8.52;;;;;;;;;;5016286;28;20052;-60
2022/01/25 14:22:10;;;;;;;27.85;9.23;;;;;;;;;;5017595;28;20057;-60
2022/01/25 14:24:36;;;;;;;22.77;8.23;;;;;;;;;;5021958;28;20018;-60
2022/01/25 14:27:17;;;;;;;22.65;8.00;;;;;;;;;;5019916;28;20026;-60
2022/01/25 14:29:43;;;;;;;25.67;9.38;;;;;;;;;;5025877;28;20026;-60
2022/01/25 14:32:09;;;;;;;22.90;8.10;;;;;;;;;;5027614;28;20083;-62
2022/01/25 14:34:35;;;;;;;21.35;7.82;;;;;;;;;;5031038;28;20044;-61
2022/01/25 14:37:01;;;;;;;27.08;9.25;;;;;;;;;;5031529;28;20508;-60
2022/01/25 14:39:27;;;;;;;24.30;8.68;;;;;;;;;;5025465;28;20076;-60
2022/01/25 14:41:53;;;;;;;22.58;9.10;;;;;;;;;;5031656;28;20108;-49
2022/01/25 14:44:24;;;;;;;21.08;8.88;;;;;;;;;;5028417;28;20153;-58
2022/01/25 14:46:52;;;;;;;16.42;7.45;;;;;;;;;;5027187;28;20517;-58
2022/01/25 14:49:30;;;;;;;26.75;9.23;;;;;;;;;;5035804;28;20416;-58
2022/01/25 14:51:59;;;;;;;21.50;8.63;;;;;;;;;;5022871;28;20026;-57
2022/01/25 14:54:30;;;;;;;23.17;8.25;;;;;;;;;;5027061;28;20048;-57
2022/01/25 14:56:58;;;;;;;24.20;8.52;;;;;;;;;;5030245;28;20033;-56
2022/01/25 14:59:26;;;;;;;28.60;8.13;;;;;;;;;;5038372;28;20041;-57
2022/01/25 15:01:54;;;;;;;20.40;8.25;;;;;;;;;;5026780;28;20473;-57
2022/01/25 15:04:20;;;;;;;23.65;9.20;;;;;;;;;;5016284;28;20041;-54
2022/01/25 15:06:46;;;;;;;18.95;7.95;;;;;;;;;;5024836;28;20033;-56
2022/01/25 15:09:14;;;;;;;21.90;7.10;;;;;;;;;;5027230;28;20030;-56
2022/01/25 15:11:40;;;;;;;22.65;7.85;;;;;;;;;;5026792;28;20032;-55
2022/01/25 15:14:17;;;;;;;20.40;7.63;;;;;;;;;;5025589;28;20041;-53
2022/01/25 15:16:43;;;;;;;24.70;8.90;;;;;;;;;;5017156;28;20117;-54
2022/01/25 15:19:09;;;;;;;21.38;8.18;;;;;;;;;;5032328;28;20040;-53
2022/01/25 15:21:35;;;;;;;21.83;7.78;;;;;;;;;;5017136;28;20026;-54
2022/01/25 15:24:01;;;;;;;22.95;8.57;;;;;;;;;;5031217;28;20034;-52
2022/01/25 15:26:33;;;;;;;20.33;7.25;;;;;;;;;;5030742;28;20025;-50
2022/01/25 15:29:01;;;;;;;22.52;8.13;;;;;;;;;;5035703;28;20055;-55
2022/01/25 15:31:27;;;;;;;24.15;7.88;;;;;;;;;;5031297;28;20079;-52
2022/01/25 15:33:53;;;;;;;21.60;7.70;;;;;;;;;;5023104;28;20033;-55
2022/01/25 15:36:20;;;;;;;21.50;8.02;;;;;;;;;;5025411;28;20092;-53
2022/01/25 15:38:50;;;;;;;21.75;7.25;;;;;;;;;;5026075;28;20025;-50
2022/01/25 15:41:16;;;;;;;19.33;7.47;;;;;;;;;;5030535;28;20025;-50
2022/01/25 15:43:50;;;;;;;20.73;8.02;;;;;;;;;;5022110;28;20499;-54
2022/01/25 15:46:25;;;;;;;20.50;8.55;;;;;;;;;;5029125;28;20427;-53
2022/01/25 15:48:52;;;;;;;22.10;8.63;;;;;;;;;;5026725;28;20045;-52
2022/01/25 15:51:18;;;;;;;22.20;7.93;;;;;;;;;;5029224;28;20052;-51
2022/01/25 15:53:44;;;;;;;20.92;8.80;;;;;;;;;;5020366;28;20117;-51
2022/01/25 15:56:10;;;;;;;19.55;6.60;;;;;;;;;;5029396;28;20503;-52
2022/01/25 15:58:36;;;;;;;18.15;7.00;;;;;;;;;;5020221;28;20030;-49
2022/01/25 16:01:02;;;;;;;33.10;13.07;;;;;;;;;;5020975;28;20032;-49
2022/01/25 16:03:32;;;;;;;21.48;8.50;;;;;;;;;;5028324;28;20064;-49
2022/01/25 16:05:59;;;;;;;21.33;8.10;;;;;;;;;;5019546;28;20053;-48
2022/01/25 16:08:25;;;;;;;21.83;7.75;;;;;;;;;;5031140;28;20029;-50